createdAt,value
2017-11-13T00:00:50.072Z,0
2017-11-13T00:01:49.377Z,0
2017-11-13T00:02:49.022Z,0
2017-11-13T00:03:50.006Z,0
2017-11-13T00:04:49.322Z,0
2017-11-13T00:05:50.319Z,0
2017-11-13T00:06:49.944Z,0
2017-11-13T00:07:48.913Z,0
2017-11-13T00:08:49.919Z,0
2017-11-13T00:09:49.879Z,0
2017-11-13T00:10:49.526Z,0
2017-11-13T00:11:49.552Z,0
2017-11-13T00:12:49.478Z,0
2017-11-13T00:13:49.121Z,0
2017-11-13T00:14:49.434Z,0
2017-11-13T00:15:49.753Z,0
2017-11-13T00:16:49.738Z,0
2017-11-13T00:17:49.043Z,0
2017-11-13T00:18:49.696Z,0
2017-11-13T00:19:49.391Z,0
2017-11-13T00:20:49.648Z,0
2017-11-13T00:21:49.636Z,0
2017-11-13T00:22:49.601Z,0
2017-11-13T00:23:49.953Z,0
2017-11-13T00:24:49.604Z,0
2017-11-13T00:25:49.555Z,0
2017-11-13T00:26:49.193Z,0
2017-11-13T00:27:49.378Z,0
2017-11-13T00:28:49.478Z,0
2017-11-13T00:29:49.118Z,0
2017-11-13T00:30:49.126Z,0
2017-11-13T00:31:49.409Z,0
2017-11-13T00:32:49.057Z,0
2017-11-13T00:33:48.700Z,0
2017-11-13T00:34:49.052Z,0
2017-11-13T00:35:49.004Z,0
2017-11-13T00:36:49.330Z,0
2017-11-13T00:37:49.629Z,0
2017-11-13T00:38:48.926Z,0
2017-11-13T00:39:49.587Z,0
2017-11-13T00:40:49.222Z,0
2017-11-13T00:41:49.541Z,0
2017-11-13T00:42:49.184Z,0
2017-11-13T00:43:48.485Z,0
2017-11-13T00:44:48.807Z,0
2017-11-13T00:45:48.493Z,0
2017-11-13T00:46:48.425Z,0
2017-11-13T00:47:49.071Z,0
2017-11-13T00:48:49.395Z,0
2017-11-13T00:49:49.374Z,0
2017-11-13T00:50:49.015Z,0
2017-11-13T00:51:48.642Z,0
2017-11-13T00:52:48.981Z,0
2017-11-13T00:53:48.957Z,0
2017-11-13T00:54:48.252Z,0
2017-11-13T00:55:48.627Z,0
2017-11-13T00:56:49.259Z,0
2017-11-13T00:57:49.186Z,0
2017-11-13T00:58:48.851Z,0
2017-11-13T00:59:48.809Z,0
2017-11-13T01:00:48.806Z,0
2017-11-13T01:01:48.765Z,0
2017-11-13T01:02:49.095Z,0
2017-11-13T01:03:48.730Z,0
2017-11-13T01:04:48.730Z,0
2017-11-13T01:05:48.698Z,0
2017-11-13T01:06:48.993Z,0
2017-11-13T01:07:47.973Z,0
2017-11-13T01:08:48.969Z,0
2017-11-13T01:09:48.255Z,0
2017-11-13T01:10:48.235Z,0
2017-11-13T01:11:48.277Z,0
2017-11-13T01:12:48.200Z,0
2017-11-13T01:13:48.511Z,0
2017-11-13T01:14:48.833Z,0
2017-11-13T01:15:48.473Z,0
2017-11-13T01:16:47.784Z,0
2017-11-13T01:17:47.764Z,0
2017-11-13T01:18:48.397Z,0
2017-11-13T01:19:48.725Z,0
2017-11-13T01:20:48.036Z,0
2017-11-13T01:21:48.338Z,0
2017-11-13T01:22:48.332Z,0
2017-11-13T01:23:48.311Z,0
2017-11-13T01:24:48.276Z,0
2017-11-13T01:25:48.253Z,0
2017-11-13T01:26:47.947Z,0
2017-11-13T01:27:47.539Z,0
2017-11-13T01:28:47.854Z,0
2017-11-13T01:29:48.509Z,0
2017-11-13T01:30:48.152Z,0
2017-11-13T01:31:47.447Z,0
2017-11-13T01:32:47.439Z,0
2017-11-13T01:33:47.741Z,0
2017-11-13T01:34:48.057Z,0
2017-11-13T01:35:47.699Z,0
2017-11-13T01:36:47.737Z,0
2017-11-13T01:37:47.656Z,0
2017-11-13T01:38:47.303Z,0
2017-11-13T01:39:47.611Z,0
2017-11-13T01:40:47.260Z,0
2017-11-13T01:41:47.236Z,0
2017-11-13T01:42:47.205Z,0
2017-11-13T01:43:48.215Z,0
2017-11-13T01:44:47.503Z,0
2017-11-13T01:45:47.818Z,0
2017-11-13T01:46:47.844Z,0
2017-11-13T01:47:47.440Z,0
2017-11-13T01:48:47.753Z,0
2017-11-13T01:49:47.400Z,0
2017-11-13T01:50:47.034Z,0
2017-11-13T01:51:48.085Z,0
2017-11-13T01:52:47.869Z,0
2017-11-13T01:53:47.323Z,0
2017-11-13T01:54:47.297Z,0
2017-11-13T01:55:46.931Z,0
2017-11-13T01:56:46.903Z,0
2017-11-13T01:57:47.229Z,0
2017-11-13T01:58:47.546Z,0
2017-11-13T01:59:47.512Z,0
2017-11-13T02:00:46.831Z,0
2017-11-13T02:01:47.473Z,0
2017-11-13T02:02:47.114Z,0
2017-11-13T02:03:46.755Z,0
2017-11-13T02:04:46.743Z,0
2017-11-13T02:05:47.388Z,0
2017-11-13T02:06:47.416Z,0
2017-11-13T02:07:47.349Z,0
2017-11-13T02:08:47.662Z,0
2017-11-13T02:09:47.634Z,0
2017-11-13T02:10:46.949Z,0
2017-11-13T02:11:47.267Z,0
2017-11-13T02:12:47.245Z,0
2017-11-13T02:13:46.888Z,0
2017-11-13T02:14:46.865Z,0
2017-11-13T02:15:47.171Z,0
2017-11-13T02:16:47.533Z,0
2017-11-13T02:17:46.803Z,0
2017-11-13T02:18:46.783Z,0
2017-11-13T02:19:47.095Z,0
2017-11-13T02:20:46.388Z,0
2017-11-13T02:21:46.703Z,0
2017-11-13T02:22:47.077Z,0
2017-11-13T02:23:46.673Z,0
2017-11-13T02:24:46.671Z,0
2017-11-13T02:25:46.624Z,0
2017-11-13T02:26:46.260Z,0
2017-11-13T02:27:46.612Z,0
2017-11-13T02:28:46.557Z,0
2017-11-13T02:29:47.215Z,0
2017-11-13T02:30:46.509Z,0
2017-11-13T02:31:46.495Z,0
2017-11-13T02:32:46.809Z,0
2017-11-13T02:33:46.812Z,0
2017-11-13T02:34:46.422Z,0
2017-11-13T02:35:46.749Z,0
2017-11-13T02:36:47.079Z,0
2017-11-13T02:37:46.080Z,0
2017-11-13T02:38:46.341Z,0
2017-11-13T02:39:46.706Z,0
2017-11-13T02:40:46.976Z,0
2017-11-13T02:41:46.611Z,0
2017-11-13T02:42:46.644Z,0
2017-11-13T02:43:45.902Z,0
2017-11-13T02:44:46.889Z,0
2017-11-13T02:45:46.187Z,0
2017-11-13T02:46:46.553Z,0
2017-11-13T02:47:46.146Z,0
2017-11-13T02:48:46.131Z,0
2017-11-13T02:49:46.119Z,0
2017-11-13T02:50:46.416Z,0
2017-11-13T02:51:46.058Z,0
2017-11-13T02:52:46.087Z,0
2017-11-13T02:53:46.015Z,0
2017-11-13T02:54:46.346Z,0
2017-11-13T02:55:46.327Z,0
2017-11-13T02:56:46.662Z,0
2017-11-13T02:57:45.981Z,0
2017-11-13T02:58:45.929Z,0
2017-11-13T02:59:46.229Z,0
2017-11-13T03:00:45.539Z,0
2017-11-13T03:01:46.196Z,0
2017-11-13T03:02:45.837Z,0
2017-11-13T03:03:46.478Z,0
2017-11-13T03:04:45.779Z,0
2017-11-13T03:05:45.761Z,0
2017-11-13T03:06:45.743Z,0
2017-11-13T03:07:46.105Z,0
2017-11-13T03:08:46.038Z,0
2017-11-13T03:09:46.346Z,0
2017-11-13T03:10:45.984Z,0
2017-11-13T03:11:45.290Z,0
2017-11-13T03:12:45.281Z,0
2017-11-13T03:13:45.585Z,0
2017-11-13T03:14:45.248Z,0
2017-11-13T03:15:45.887Z,0
2017-11-13T03:16:46.237Z,0
2017-11-13T03:17:45.177Z,0
2017-11-13T03:18:45.155Z,0
2017-11-13T03:19:45.458Z,0
2017-11-13T03:20:45.777Z,0
2017-11-13T03:21:45.076Z,0
2017-11-13T03:22:45.395Z,0
2017-11-13T03:23:45.772Z,0
2017-11-13T03:24:45.702Z,0
2017-11-13T03:25:45.672Z,0
2017-11-13T03:26:45.309Z,0
2017-11-13T03:27:45.298Z,0
2017-11-13T03:28:45.272Z,0
2017-11-13T03:29:45.251Z,0
2017-11-13T03:30:45.237Z,0
2017-11-13T03:31:44.887Z,0
2017-11-13T03:32:45.522Z,0
2017-11-13T03:33:44.886Z,0
2017-11-13T03:34:44.803Z,0
2017-11-13T03:35:44.789Z,0
2017-11-13T03:36:45.457Z,0
2017-11-13T03:37:45.773Z,0
2017-11-13T03:38:45.103Z,0
2017-11-13T03:39:45.037Z,0
2017-11-13T03:40:45.014Z,0
2017-11-13T03:41:45.332Z,0
2017-11-13T03:42:44.644Z,0
2017-11-13T03:43:45.645Z,0
2017-11-13T03:44:44.959Z,0
2017-11-13T03:45:44.234Z,0
2017-11-13T03:46:45.554Z,0
2017-11-13T03:47:45.544Z,0
2017-11-13T03:48:44.905Z,0
2017-11-13T03:49:44.861Z,0
2017-11-13T03:50:45.153Z,0
2017-11-13T03:51:45.128Z,0
2017-11-13T03:52:59.909Z,0
2017-11-13T03:53:44.791Z,0
2017-11-13T03:54:44.771Z,0
2017-11-13T03:55:44.702Z,0
2017-11-13T03:56:44.336Z,0
2017-11-13T03:57:44.659Z,0
2017-11-13T03:58:45.362Z,0
2017-11-13T03:59:45.286Z,0
2017-11-13T04:00:45.326Z,0
2017-11-13T04:01:44.579Z,0
2017-11-13T04:02:44.894Z,0
2017-11-13T04:03:44.196Z,0
2017-11-13T04:04:44.195Z,0
2017-11-13T04:05:44.162Z,0
2017-11-13T04:06:44.805Z,0
2017-11-13T04:07:44.442Z,0
2017-11-13T04:08:44.085Z,0
2017-11-13T04:09:44.403Z,0
2017-11-13T04:10:44.725Z,0
2017-11-13T04:11:45.049Z,0
2017-11-13T04:12:44.672Z,0
2017-11-13T04:13:45.037Z,0
2017-11-13T04:14:44.966Z,0
2017-11-13T04:15:44.277Z,0
2017-11-13T04:16:44.293Z,0
2017-11-13T04:17:44.565Z,0
2017-11-13T04:18:44.206Z,0
2017-11-13T04:19:44.522Z,0
2017-11-13T04:20:44.178Z,0
2017-11-13T04:21:44.479Z,0
2017-11-13T04:22:44.476Z,0
2017-11-13T04:23:44.777Z,0
2017-11-13T04:24:44.430Z,0
2017-11-13T04:25:44.079Z,0
2017-11-13T04:26:43.363Z,0
2017-11-13T04:27:43.687Z,0
2017-11-13T04:28:44.723Z,0
2017-11-13T04:29:43.999Z,0
2017-11-13T04:30:44.670Z,0
2017-11-13T04:31:44.292Z,0
2017-11-13T04:32:43.917Z,0
2017-11-13T04:33:43.897Z,0
2017-11-13T04:34:43.872Z,0
2017-11-13T04:35:43.858Z,0
2017-11-13T04:36:44.180Z,0
2017-11-13T04:37:43.140Z,0
2017-11-13T04:38:44.125Z,0
2017-11-13T04:39:43.432Z,0
2017-11-13T04:40:44.083Z,0
2017-11-13T04:41:44.063Z,0
2017-11-13T04:42:43.709Z,0
2017-11-13T04:43:44.375Z,0
2017-11-13T04:44:43.719Z,0
2017-11-13T04:45:43.977Z,0
2017-11-13T04:46:43.967Z,0
2017-11-13T04:47:43.349Z,0
2017-11-13T04:48:44.299Z,0
2017-11-13T04:49:43.560Z,0
2017-11-13T04:50:44.208Z,0
2017-11-13T04:51:44.185Z,0
2017-11-13T04:52:44.161Z,0
2017-11-13T04:53:43.472Z,0
2017-11-13T04:54:43.840Z,0
2017-11-13T04:55:44.097Z,0
2017-11-13T04:56:43.409Z,0
2017-11-13T04:57:43.715Z,0
2017-11-13T04:58:44.103Z,0
2017-11-13T04:59:43.346Z,0
2017-11-13T05:00:43.351Z,0
2017-11-13T05:01:43.996Z,0
2017-11-13T05:02:43.607Z,0
2017-11-13T05:03:43.267Z,0
2017-11-13T05:04:43.246Z,0
2017-11-13T05:05:43.220Z,0
2017-11-13T05:06:43.195Z,0
2017-11-13T05:07:43.177Z,0
2017-11-13T05:08:42.833Z,0
2017-11-13T05:09:43.821Z,0
2017-11-13T05:10:43.109Z,0
2017-11-13T05:11:43.769Z,0
2017-11-13T05:12:43.074Z,0
2017-11-13T05:13:43.735Z,0
2017-11-13T05:14:43.091Z,0
2017-11-13T05:15:43.689Z,0
2017-11-13T05:16:42.660Z,0
2017-11-13T05:17:43.306Z,0
2017-11-13T05:18:42.949Z,0
2017-11-13T05:19:43.604Z,0
2017-11-13T05:20:42.565Z,0
2017-11-13T05:21:42.882Z,0
2017-11-13T05:22:43.195Z,0
2017-11-13T05:23:43.510Z,0
2017-11-13T05:24:42.483Z,0
2017-11-13T05:25:42.809Z,0
2017-11-13T05:26:43.123Z,0
2017-11-13T05:27:43.095Z,0
2017-11-13T05:28:43.071Z,0
2017-11-13T05:29:43.060Z,0
2017-11-13T05:30:43.086Z,0
2017-11-13T05:31:42.679Z,0
2017-11-13T05:32:42.651Z,0
2017-11-13T05:33:43.300Z,0
2017-11-13T05:34:42.942Z,0
2017-11-13T05:35:42.594Z,0
2017-11-13T05:36:42.898Z,0
2017-11-13T05:37:42.204Z,0
2017-11-13T05:38:42.524Z,0
2017-11-13T05:39:43.169Z,0
2017-11-13T05:40:42.540Z,0
2017-11-13T05:41:42.453Z,0
2017-11-13T05:42:42.451Z,0
2017-11-13T05:43:42.444Z,0
2017-11-13T05:44:42.742Z,0
2017-11-13T05:45:42.481Z,0
2017-11-13T05:46:42.698Z,0
2017-11-13T05:47:42.336Z,0
2017-11-13T05:48:42.644Z,0
2017-11-13T05:49:42.630Z,0
2017-11-13T05:50:42.325Z,0
2017-11-13T05:51:41.925Z,0
2017-11-13T05:52:42.964Z,0
2017-11-13T05:53:42.212Z,0
2017-11-13T05:54:42.864Z,0
2017-11-13T05:55:42.175Z,0
2017-11-13T05:56:42.494Z,0
2017-11-13T05:57:42.131Z,0
2017-11-13T05:58:42.432Z,0
2017-11-13T05:59:42.086Z,0
2017-11-13T06:00:42.542Z,0
2017-11-13T06:01:42.377Z,0
2017-11-13T06:02:41.677Z,0
2017-11-13T06:03:42.332Z,0
2017-11-13T06:04:41.968Z,0
2017-11-13T06:05:42.294Z,0
2017-11-13T06:06:41.597Z,0
2017-11-13T06:07:41.578Z,0
2017-11-13T06:08:42.218Z,0
2017-11-13T06:09:41.861Z,0
2017-11-13T06:10:41.515Z,0
2017-11-13T06:11:41.496Z,0
2017-11-13T06:12:42.471Z,0
2017-11-13T06:13:41.773Z,0
2017-11-13T06:14:41.418Z,0
2017-11-13T06:15:42.463Z,0
2017-11-13T06:16:41.382Z,0
2017-11-13T06:17:42.044Z,0
2017-11-13T06:18:42.014Z,0
2017-11-13T06:19:41.988Z,0
2017-11-13T06:20:41.630Z,0
2017-11-13T06:21:41.950Z,0
2017-11-13T06:22:42.260Z,0
2017-11-13T06:23:40.936Z,0
2017-11-13T06:24:41.572Z,0
2017-11-13T06:25:41.601Z,0
2017-11-13T06:26:41.849Z,0
2017-11-13T06:27:41.497Z,0
2017-11-13T06:28:40.791Z,0
2017-11-13T06:29:41.440Z,0
2017-11-13T06:30:41.425Z,0
2017-11-13T06:31:41.406Z,0
2017-11-13T06:32:41.380Z,0
2017-11-13T06:33:41.016Z,0
2017-11-13T06:34:41.683Z,0
2017-11-13T06:35:41.704Z,0
2017-11-13T06:36:41.300Z,0
2017-11-13T06:37:41.269Z,0
2017-11-13T06:38:41.260Z,0
2017-11-13T06:39:41.223Z,0
2017-11-13T06:40:41.539Z,0
2017-11-13T06:41:41.868Z,0
2017-11-13T06:42:41.509Z,0
2017-11-13T06:43:41.487Z,0
2017-11-13T06:44:41.465Z,0
2017-11-13T06:45:41.434Z,0
2017-11-13T06:46:41.755Z,0
2017-11-13T06:47:41.055Z,0
2017-11-13T06:48:40.364Z,0
2017-11-13T06:49:41.356Z,5
2017-11-13T06:50:40.994Z,5
2017-11-13T06:51:40.684Z,5
2017-11-13T06:52:40.947Z,5
2017-11-13T06:53:40.930Z,5
2017-11-13T06:54:41.245Z,5
2017-11-13T06:55:40.887Z,5
2017-11-13T06:56:41.554Z,5
2017-11-13T06:57:40.879Z,10
2017-11-13T06:58:41.537Z,10
2017-11-13T06:59:41.483Z,10
2017-11-13T07:00:40.780Z,10
2017-11-13T07:01:40.145Z,10
2017-11-13T07:02:40.743Z,10
2017-11-13T07:03:41.392Z,10
2017-11-13T07:04:41.041Z,15
2017-11-13T07:05:41.011Z,15
2017-11-13T07:06:40.718Z,15
2017-11-13T07:07:40.639Z,15
2017-11-13T07:08:40.956Z,15
2017-11-13T07:09:40.269Z,15
2017-11-13T07:10:40.571Z,15
2017-11-13T07:11:40.605Z,20
2017-11-13T07:12:40.867Z,20
2017-11-13T07:13:40.177Z,20
2017-11-13T07:14:40.829Z,20
2017-11-13T07:15:40.795Z,25
2017-11-13T07:16:40.783Z,25
2017-11-13T07:17:40.424Z,30
2017-11-13T07:18:40.417Z,30
2017-11-13T07:19:40.397Z,25
2017-11-13T07:20:40.026Z,25
2017-11-13T07:21:39.664Z,25
2017-11-13T07:22:40.654Z,25
2017-11-13T07:23:39.965Z,25
2017-11-13T07:24:40.292Z,25
2017-11-13T07:25:40.273Z,30
2017-11-13T07:26:40.563Z,30
2017-11-13T07:27:40.883Z,30
2017-11-13T07:28:40.218Z,35
2017-11-13T07:29:39.834Z,35
2017-11-13T07:30:40.146Z,40
2017-11-13T07:31:39.805Z,40
2017-11-13T07:32:40.452Z,40
2017-11-13T07:33:40.090Z,40
2017-11-13T07:34:40.761Z,45
2017-11-13T07:35:40.065Z,45
2017-11-13T07:36:40.364Z,40
2017-11-13T07:37:39.727Z,50
2017-11-13T07:38:40.320Z,50
2017-11-13T07:39:39.618Z,45
2017-11-13T07:40:40.300Z,45
2017-11-13T07:41:39.586Z,45
2017-11-13T07:42:39.996Z,40
2017-11-13T07:43:39.875Z,45
2017-11-13T07:44:39.894Z,45
2017-11-13T07:45:39.502Z,45
2017-11-13T07:46:40.489Z,45
2017-11-13T07:47:39.843Z,50
2017-11-13T07:48:39.443Z,50
2017-11-13T07:49:40.430Z,55
2017-11-13T07:50:39.398Z,55
2017-11-13T07:51:39.709Z,55
2017-11-13T07:52:40.563Z,50
2017-11-13T07:53:40.205Z,50
2017-11-13T07:54:39.993Z,55
2017-11-13T07:55:39.631Z,55
2017-11-13T07:56:39.953Z,55
2017-11-13T07:57:39.926Z,55
2017-11-13T07:58:39.924Z,60
2017-11-13T07:59:39.206Z,60
2017-11-13T08:00:39.526Z,60
2017-11-13T08:01:39.505Z,60
2017-11-13T08:02:40.212Z,55
2017-11-13T08:03:39.480Z,55
2017-11-13T08:04:39.775Z,55
2017-11-13T08:05:39.423Z,60
2017-11-13T08:06:39.407Z,60
2017-11-13T08:07:39.395Z,60
2017-11-13T08:08:39.709Z,60
2017-11-13T08:09:39.682Z,65
2017-11-13T08:10:39.996Z,60
2017-11-13T08:11:38.967Z,60
2017-11-13T08:12:39.632Z,65
2017-11-13T08:13:39.255Z,65
2017-11-13T08:14:39.926Z,65
2017-11-13T08:15:38.892Z,70
2017-11-13T08:16:39.555Z,70
2017-11-13T08:17:39.534Z,70
2017-11-13T08:18:38.483Z,70
2017-11-13T08:19:38.808Z,70
2017-11-13T08:20:39.120Z,70
2017-11-13T08:21:39.096Z,70
2017-11-13T08:22:39.073Z,70
2017-11-13T08:23:39.453Z,70
2017-11-13T08:24:39.392Z,75
2017-11-13T08:25:39.015Z,85
2017-11-13T08:26:39.001Z,105
2017-11-13T08:27:38.303Z,110
2017-11-13T08:28:38.626Z,125
2017-11-13T08:29:39.286Z,115
2017-11-13T08:30:38.972Z,110
2017-11-13T08:31:38.909Z,115
2017-11-13T08:32:39.207Z,120
2017-11-13T08:33:39.532Z,110
2017-11-13T08:34:38.832Z,85
2017-11-13T08:35:38.816Z,75
2017-11-13T08:36:39.142Z,70
2017-11-13T08:37:39.106Z,90
2017-11-13T08:38:39.434Z,115
2017-11-13T08:39:39.080Z,115
2017-11-13T08:40:38.717Z,100
2017-11-13T08:41:38.691Z,90
2017-11-13T08:42:38.673Z,80
2017-11-13T08:43:38.993Z,75
2017-11-13T08:44:38.305Z,80
2017-11-13T08:45:38.620Z,80
2017-11-13T08:46:38.260Z,80
2017-11-13T08:47:38.575Z,80
2017-11-13T08:48:38.659Z,85
2017-11-13T08:49:38.550Z,85
2017-11-13T08:50:38.203Z,85
2017-11-13T08:51:38.509Z,85
2017-11-13T08:52:39.199Z,85
2017-11-13T08:53:38.850Z,90
2017-11-13T08:54:38.778Z,90
2017-11-13T08:55:38.768Z,90
2017-11-13T08:56:38.411Z,95
2017-11-13T08:57:38.379Z,95
2017-11-13T08:58:39.040Z,110
2017-11-13T08:59:38.012Z,135
2017-11-13T09:00:39.008Z,150
2017-11-13T09:01:38.651Z,140
2017-11-13T09:02:38.621Z,135
2017-11-13T09:03:38.668Z,125
2017-11-13T09:04:38.595Z,110
2017-11-13T09:05:38.234Z,105
2017-11-13T09:06:37.878Z,115
2017-11-13T09:07:38.534Z,110
2017-11-13T09:08:38.853Z,110
2017-11-13T09:09:37.818Z,95
2017-11-13T09:10:38.474Z,105
2017-11-13T09:11:37.788Z,90
2017-11-13T09:12:38.100Z,95
2017-11-13T09:13:37.743Z,110
2017-11-13T09:14:37.723Z,115
2017-11-13T09:15:37.705Z,105
2017-11-13T09:16:38.029Z,110
2017-11-13T09:17:38.331Z,180
2017-11-13T09:18:37.307Z,260
2017-11-13T09:19:38.712Z,200
2017-11-13T09:20:37.604Z,120
2017-11-13T09:21:37.598Z,115
2017-11-13T09:22:38.245Z,155
2017-11-13T09:23:38.230Z,165
2017-11-13T09:24:37.531Z,200
2017-11-13T09:25:38.189Z,290
2017-11-13T09:26:38.167Z,225
2017-11-13T09:27:38.153Z,185
2017-11-13T09:28:37.796Z,185
2017-11-13T09:29:37.789Z,145
2017-11-13T09:30:38.098Z,130
2017-11-13T09:31:38.441Z,135
2017-11-13T09:32:38.407Z,145
2017-11-13T09:33:38.052Z,145
2017-11-13T09:34:38.031Z,160
2017-11-13T09:35:37.666Z,150
2017-11-13T09:36:37.989Z,140
2017-11-13T09:37:37.292Z,125
2017-11-13T09:38:37.295Z,160
2017-11-13T09:39:37.321Z,150
2017-11-13T09:40:37.918Z,140
2017-11-13T09:41:37.561Z,130
2017-11-13T09:42:38.216Z,130
2017-11-13T09:43:37.525Z,120
2017-11-13T09:44:37.858Z,120
2017-11-13T09:45:37.488Z,115
2017-11-13T09:46:37.477Z,185
2017-11-13T09:47:37.803Z,155
2017-11-13T09:48:37.099Z,170
2017-11-13T09:49:37.781Z,160
2017-11-13T09:50:38.136Z,155
2017-11-13T09:51:37.394Z,160
2017-11-13T09:52:37.037Z,185
2017-11-13T09:53:37.555Z,235
2017-11-13T09:54:37.671Z,230
2017-11-13T09:55:37.313Z,190
2017-11-13T09:56:37.305Z,190
2017-11-13T09:57:37.628Z,215
2017-11-13T09:58:37.270Z,230
2017-11-13T09:59:37.318Z,185
2017-11-13T10:00:37.231Z,210
2017-11-13T10:01:37.556Z,145
2017-11-13T10:02:37.888Z,240
2017-11-13T10:03:37.184Z,160
2017-11-13T10:04:37.161Z,155
2017-11-13T10:05:36.818Z,190
2017-11-13T10:06:37.489Z,180
2017-11-13T10:07:37.476Z,185
2017-11-13T10:08:37.100Z,180
2017-11-13T10:09:37.848Z,195
2017-11-13T10:10:37.409Z,210
2017-11-13T10:11:37.385Z,225
2017-11-13T10:12:37.372Z,255
2017-11-13T10:13:37.697Z,215
2017-11-13T10:14:36.998Z,185
2017-11-13T10:15:37.657Z,170
2017-11-13T10:16:37.305Z,165
2017-11-13T10:17:36.962Z,175
2017-11-13T10:18:36.593Z,195
2017-11-13T10:19:36.597Z,305
2017-11-13T10:20:37.309Z,235
2017-11-13T10:21:37.574Z,275
2017-11-13T10:22:36.534Z,305
2017-11-13T10:23:36.515Z,215
2017-11-13T10:24:36.866Z,235
2017-11-13T10:25:36.822Z,335
2017-11-13T10:26:37.145Z,180
2017-11-13T10:27:36.799Z,235
2017-11-13T10:28:36.777Z,200
2017-11-13T10:29:37.107Z,210
2017-11-13T10:30:36.409Z,200
2017-11-13T10:31:36.741Z,205
2017-11-13T10:32:37.051Z,300
2017-11-13T10:33:37.424Z,360
2017-11-13T10:34:36.004Z,370
2017-11-13T10:35:37.343Z,330
2017-11-13T10:36:36.651Z,430
2017-11-13T10:37:36.982Z,490
2017-11-13T10:38:36.630Z,485
2017-11-13T10:39:36.606Z,355
2017-11-13T10:40:36.255Z,235
2017-11-13T10:41:36.598Z,210
2017-11-13T10:42:37.240Z,225
2017-11-13T10:43:36.561Z,285
2017-11-13T10:44:36.878Z,330
2017-11-13T10:45:36.190Z,335
2017-11-13T10:46:36.855Z,380
2017-11-13T10:47:36.502Z,395
2017-11-13T10:48:36.487Z,365
2017-11-13T10:49:36.816Z,315
2017-11-13T10:50:36.515Z,255
2017-11-13T10:51:36.778Z,290
2017-11-13T10:52:36.793Z,300
2017-11-13T10:53:35.748Z,225
2017-11-13T10:54:36.757Z,360
2017-11-13T10:55:36.727Z,325
2017-11-13T10:56:36.388Z,360
2017-11-13T10:57:36.366Z,415
2017-11-13T10:58:37.060Z,495
2017-11-13T10:59:36.003Z,465
2017-11-13T11:00:36.734Z,435
2017-11-13T11:01:36.655Z,395
2017-11-13T11:02:36.640Z,410
2017-11-13T11:03:36.304Z,315
2017-11-13T11:04:36.635Z,390
2017-11-13T11:05:35.950Z,420
2017-11-13T11:06:36.257Z,320
2017-11-13T11:07:36.922Z,390
2017-11-13T11:08:36.238Z,240
2017-11-13T11:09:35.883Z,290
2017-11-13T11:10:36.609Z,255
2017-11-13T11:11:36.196Z,285
2017-11-13T11:12:35.854Z,360
2017-11-13T11:13:36.507Z,295
2017-11-13T11:14:36.168Z,225
2017-11-13T11:15:36.152Z,190
2017-11-13T11:16:36.139Z,170
2017-11-13T11:17:36.476Z,170
2017-11-13T11:18:35.781Z,170
2017-11-13T11:19:36.789Z,165
2017-11-13T11:20:36.107Z,165
2017-11-13T11:21:36.420Z,165
2017-11-13T11:22:36.075Z,160
2017-11-13T11:23:36.409Z,160
2017-11-13T11:24:36.400Z,155
2017-11-13T11:25:36.396Z,155
2017-11-13T11:26:35.687Z,155
2017-11-13T11:27:36.007Z,160
2017-11-13T11:28:36.348Z,160
2017-11-13T11:29:35.984Z,165
2017-11-13T11:30:35.979Z,165
2017-11-13T11:31:35.968Z,160
2017-11-13T11:32:35.968Z,165
2017-11-13T11:33:36.286Z,160
2017-11-13T11:34:35.929Z,160
2017-11-13T11:35:36.003Z,160
2017-11-13T11:36:35.895Z,165
2017-11-13T11:37:35.882Z,170
2017-11-13T11:38:36.217Z,180
2017-11-13T11:39:35.516Z,175
2017-11-13T11:40:35.890Z,180
2017-11-13T11:41:35.492Z,190
2017-11-13T11:42:35.816Z,210
2017-11-13T11:43:35.813Z,215
2017-11-13T11:44:36.124Z,230
2017-11-13T11:45:35.796Z,265
2017-11-13T11:46:35.751Z,265
2017-11-13T11:47:35.755Z,275
2017-11-13T11:48:36.070Z,335
2017-11-13T11:49:35.719Z,445
2017-11-13T11:50:35.809Z,500
2017-11-13T11:51:35.406Z,540
2017-11-13T11:52:35.680Z,555
2017-11-13T11:53:35.879Z,555
2017-11-13T11:54:35.320Z,565
2017-11-13T11:55:35.644Z,575
2017-11-13T11:56:35.641Z,580
2017-11-13T11:57:36.297Z,590
2017-11-13T11:58:35.608Z,595
2017-11-13T11:59:35.601Z,615
2017-11-13T12:00:35.603Z,620
2017-11-13T12:01:35.255Z,545
2017-11-13T12:02:35.570Z,595
2017-11-13T12:03:35.563Z,615
2017-11-13T12:04:35.553Z,555
2017-11-13T12:05:35.543Z,630
2017-11-13T12:06:35.575Z,605
2017-11-13T12:07:35.529Z,600
2017-11-13T12:08:34.846Z,595
2017-11-13T12:09:35.164Z,595
2017-11-13T12:10:35.509Z,590
2017-11-13T12:11:35.499Z,550
2017-11-13T12:12:35.821Z,640
2017-11-13T12:13:35.815Z,635
2017-11-13T12:14:35.811Z,590
2017-11-13T12:15:35.805Z,585
2017-11-13T12:16:35.854Z,480
2017-11-13T12:17:35.445Z,610
2017-11-13T12:18:35.109Z,645
2017-11-13T12:19:35.443Z,675
2017-11-13T12:20:35.426Z,675
2017-11-13T12:21:35.421Z,675
2017-11-13T12:22:35.428Z,585
2017-11-13T12:23:35.075Z,500
2017-11-13T12:24:35.745Z,685
2017-11-13T12:25:35.779Z,500
2017-11-13T12:26:35.071Z,495
2017-11-13T12:27:35.385Z,480
2017-11-13T12:28:35.720Z,375
2017-11-13T12:29:35.040Z,275
2017-11-13T12:30:35.711Z,250
2017-11-13T12:31:35.357Z,245
2017-11-13T12:32:35.417Z,395
2017-11-13T12:33:35.705Z,375
2017-11-13T12:34:35.365Z,610
2017-11-13T12:35:36.024Z,630
2017-11-13T12:36:35.665Z,665
2017-11-13T12:37:35.660Z,635
2017-11-13T12:38:36.011Z,595
2017-11-13T12:39:35.321Z,585
2017-11-13T12:40:34.640Z,585
2017-11-13T12:41:35.643Z,610
2017-11-13T12:42:35.639Z,630
2017-11-13T12:43:35.643Z,445
2017-11-13T12:44:34.947Z,550
2017-11-13T12:45:35.278Z,325
2017-11-13T12:46:35.281Z,285
2017-11-13T12:47:35.613Z,235
2017-11-13T12:48:34.943Z,200
2017-11-13T12:49:35.261Z,180
2017-11-13T12:50:35.961Z,150
2017-11-13T12:51:34.579Z,120
2017-11-13T12:52:35.297Z,125
2017-11-13T12:53:35.277Z,115
2017-11-13T12:54:35.576Z,130
2017-11-13T12:55:34.891Z,290
2017-11-13T12:56:35.913Z,220
2017-11-13T12:57:35.275Z,435
2017-11-13T12:58:34.883Z,255
2017-11-13T12:59:35.206Z,530
2017-11-13T13:00:35.535Z,530
2017-11-13T13:01:35.524Z,375
2017-11-13T13:02:35.620Z,515
2017-11-13T13:03:35.177Z,520
2017-11-13T13:04:35.173Z,490
2017-11-13T13:05:35.495Z,510
2017-11-13T13:06:35.174Z,495
2017-11-13T13:07:35.152Z,450
2017-11-13T13:08:35.490Z,375
2017-11-13T13:09:35.134Z,225
2017-11-13T13:10:35.470Z,200
2017-11-13T13:11:35.454Z,215
2017-11-13T13:12:35.165Z,225
2017-11-13T13:13:35.103Z,285
2017-11-13T13:14:35.433Z,265
2017-11-13T13:15:35.082Z,190
2017-11-13T13:16:35.421Z,280
2017-11-13T13:17:35.755Z,245
2017-11-13T13:18:35.066Z,345
2017-11-13T13:19:35.399Z,380
2017-11-13T13:20:35.738Z,395
2017-11-13T13:21:35.386Z,420
2017-11-13T13:22:35.033Z,415
2017-11-13T13:23:35.022Z,390
2017-11-13T13:24:35.022Z,375
2017-11-13T13:25:34.691Z,350
2017-11-13T13:26:35.673Z,350
2017-11-13T13:27:35.338Z,210
2017-11-13T13:28:35.031Z,220
2017-11-13T13:29:34.982Z,175
2017-11-13T13:30:35.311Z,250
2017-11-13T13:31:34.996Z,275
2017-11-13T13:32:34.951Z,195
2017-11-13T13:33:35.286Z,220
2017-11-13T13:34:34.944Z,175
2017-11-13T13:35:34.940Z,170
2017-11-13T13:36:34.264Z,165
2017-11-13T13:37:34.594Z,165
2017-11-13T13:38:34.282Z,170
2017-11-13T13:39:34.905Z,165
2017-11-13T13:40:34.893Z,160
2017-11-13T13:41:35.557Z,155
2017-11-13T13:42:34.876Z,150
2017-11-13T13:43:35.213Z,145
2017-11-13T13:44:34.854Z,140
2017-11-13T13:45:35.540Z,135
2017-11-13T13:46:35.185Z,130
2017-11-13T13:47:34.155Z,135
2017-11-13T13:48:34.877Z,135
2017-11-13T13:49:35.142Z,140
2017-11-13T13:50:34.805Z,145
2017-11-13T13:51:34.797Z,140
2017-11-13T13:52:35.107Z,140
2017-11-13T13:53:35.380Z,140
2017-11-13T13:54:34.418Z,155
2017-11-13T13:55:34.748Z,165
2017-11-13T13:56:34.399Z,165
2017-11-13T13:57:34.727Z,155
2017-11-13T13:58:34.773Z,150
2017-11-13T13:59:34.748Z,145
2017-11-13T14:00:34.697Z,135
2017-11-13T14:01:34.689Z,145
2017-11-13T14:02:34.343Z,135
2017-11-13T14:03:35.350Z,125
2017-11-13T14:04:34.988Z,120
2017-11-13T14:05:34.643Z,120
2017-11-13T14:06:34.624Z,120
2017-11-13T14:07:35.281Z,115
2017-11-13T14:08:34.602Z,115
2017-11-13T14:09:34.985Z,110
2017-11-13T14:10:34.918Z,115
2017-11-13T14:11:34.901Z,120
2017-11-13T14:12:34.888Z,110
2017-11-13T14:13:35.209Z,100
2017-11-13T14:14:34.189Z,95
2017-11-13T14:15:34.516Z,85
2017-11-13T14:16:34.831Z,85
2017-11-13T14:17:34.849Z,85
2017-11-13T14:18:34.522Z,80